createdAt,value
2023-08-08T00:00:06.702Z,97628.13
2023-08-08T00:02:33.168Z,97626.88
2023-08-08T00:04:59.534Z,97623.41
2023-08-08T00:07:25.828Z,97617.78
2023-08-08T00:09:52.141Z,97620.31
2023-08-08T00:12:18.451Z,97616.56
2023-08-08T00:14:44.829Z,97616.66
2023-08-08T00:17:11.140Z,97622.50
2023-08-08T00:19:37.470Z,97609.63
2023-08-08T00:22:03.783Z,97611.34
2023-08-08T00:24:30.127Z,97602.78
2023-08-08T00:26:56.496Z,97593.97
2023-08-08T00:29:22.781Z,97586.03
2023-08-08T00:31:49.131Z,97591.03
2023-08-08T00:34:15.419Z,97589.81
2023-08-08T00:36:41.739Z,97583.41
2023-08-08T00:39:08.067Z,97576.53
2023-08-08T00:41:34.388Z,97577.38
2023-08-08T00:44:00.678Z,97585.06
2023-08-08T00:46:27.142Z,97587.78
2023-08-08T00:48:53.529Z,97582.28
2023-08-08T00:51:19.872Z,97581.50
2023-08-08T00:53:46.186Z,97578.31
2023-08-08T00:56:12.543Z,97560.59
2023-08-08T00:58:38.847Z,97569.06
2023-08-08T01:01:05.171Z,97574.59
2023-08-08T01:03:31.578Z,97574.94
2023-08-08T01:05:57.921Z,97569.00
2023-08-08T01:08:24.324Z,97565.16
2023-08-08T01:10:50.660Z,97561.50
2023-08-08T01:13:16.979Z,97546.88
2023-08-08T01:15:43.482Z,97548.56
2023-08-08T01:18:10.004Z,97543.47
2023-08-08T01:20:36.357Z,97554.78
2023-08-08T01:23:02.690Z,97550.53
2023-08-08T01:25:29.052Z,97538.72
2023-08-08T01:27:55.380Z,97540.31
2023-08-08T01:30:21.837Z,97542.47
2023-08-08T01:32:48.184Z,97540.88
2023-08-08T01:35:14.524Z,97539.19
2023-08-08T01:37:40.815Z,97540.47
2023-08-08T01:40:07.263Z,97534.19
2023-08-08T01:42:33.564Z,97527.88
2023-08-08T01:44:59.930Z,97540.41
2023-08-08T01:47:26.328Z,97536.94
2023-08-08T01:49:52.729Z,97529.31
2023-08-08T01:52:19.036Z,97529.09
2023-08-08T01:54:45.344Z,97526.81
2023-08-08T01:57:11.628Z,97520.22
2023-08-08T01:59:37.970Z,97525.53
2023-08-08T02:02:04.282Z,97536.44
2023-08-08T02:04:30.576Z,97537.53
2023-08-08T02:06:57.036Z,97546.00
2023-08-08T02:09:23.452Z,97540.72
2023-08-08T02:11:49.829Z,97538.25
2023-08-08T02:14:16.150Z,97541.28
2023-08-08T02:16:42.525Z,97536.72
2023-08-08T02:19:08.818Z,97537.59
2023-08-08T02:21:35.235Z,97548.75
2023-08-08T02:24:01.535Z,97541.19
2023-08-08T02:26:27.859Z,97546.34
2023-08-08T02:28:54.190Z,97547.38
2023-08-08T02:31:20.523Z,97545.22
2023-08-08T02:33:46.817Z,97549.00
2023-08-08T02:36:13.125Z,97561.84
2023-08-08T02:38:39.849Z,97558.97
2023-08-08T02:41:06.125Z,97566.75
2023-08-08T02:43:32.487Z,97565.28
2023-08-08T02:45:58.841Z,97564.28
2023-08-08T02:48:25.169Z,97567.34
2023-08-08T02:50:51.505Z,97560.03
2023-08-08T02:53:17.888Z,97562.50
2023-08-08T02:55:44.192Z,97561.22
2023-08-08T02:58:10.709Z,97561.19
2023-08-08T03:00:39.440Z,97559.28
2023-08-08T03:03:05.844Z,97561.25
2023-08-08T03:05:32.321Z,97556.50
2023-08-08T03:07:58.640Z,97566.13
2023-08-08T03:10:24.983Z,97563.69
2023-08-08T03:12:51.318Z,97563.28
2023-08-08T03:15:17.656Z,97562.16
2023-08-08T03:17:43.987Z,97564.44
2023-08-08T03:20:10.576Z,97566.13
2023-08-08T03:22:36.951Z,97564.09
2023-08-08T03:25:03.318Z,97558.63
2023-08-08T03:27:29.757Z,97558.84
2023-08-08T03:29:56.097Z,97565.72
2023-08-08T03:32:22.402Z,97567.53
2023-08-08T03:34:48.765Z,97564.28
2023-08-08T03:37:15.114Z,97568.72
2023-08-08T03:39:41.429Z,97562.91
2023-08-08T03:42:07.809Z,97569.13
2023-08-08T03:44:34.135Z,97567.63
2023-08-08T03:47:13.594Z,97563.34
2023-08-08T03:49:45.297Z,97554.94
2023-08-08T03:52:12.134Z,97559.09
2023-08-08T03:54:38.714Z,97554.34
2023-08-08T03:57:05.463Z,97555.94
2023-08-08T03:59:31.738Z,97565.16
2023-08-08T04:01:58.108Z,97560.13
2023-08-08T04:04:24.442Z,97557.72
2023-08-08T04:06:50.728Z,97558.56
2023-08-08T04:09:17.034Z,97555.94
2023-08-08T04:11:43.370Z,97553.28
2023-08-08T04:14:29.642Z,97552.84
2023-08-08T04:16:56.080Z,97564.13
2023-08-08T04:19:30.214Z,97561.97
2023-08-08T04:21:56.818Z,97557.34
2023-08-08T04:24:23.310Z,97557.25
2023-08-08T04:26:49.693Z,97551.66
2023-08-08T04:29:16.162Z,97561.63
2023-08-08T04:31:42.472Z,97556.09
2023-08-08T04:34:08.792Z,97560.53
2023-08-08T04:36:35.168Z,97561.97
2023-08-08T04:39:01.496Z,97556.97
2023-08-08T04:41:27.781Z,97563.84
2023-08-08T04:43:54.151Z,97544.31
2023-08-08T04:46:20.478Z,97555.81
2023-08-08T04:48:46.836Z,97561.31
2023-08-08T04:51:13.315Z,97568.38
2023-08-08T04:53:39.714Z,97569.16
2023-08-08T04:56:06.105Z,97567.31
2023-08-08T04:58:32.535Z,97570.31
2023-08-08T05:00:58.935Z,97564.09
2023-08-08T05:03:25.289Z,97557.41
2023-08-08T05:05:51.737Z,97569.13
2023-08-08T05:08:18.055Z,97560.75
2023-08-08T05:10:44.362Z,97557.03
2023-08-08T05:13:10.696Z,97559.72
2023-08-08T05:15:37.014Z,97562.69
2023-08-08T05:18:03.377Z,97562.25
2023-08-08T05:20:29.923Z,97560.00
2023-08-08T05:22:56.425Z,97568.63
2023-08-08T05:25:22.723Z,97561.31
2023-08-08T05:27:49.067Z,97565.78
2023-08-08T05:30:15.386Z,97577.00
2023-08-08T05:32:41.791Z,97578.03
2023-08-08T05:35:08.229Z,97579.75
2023-08-08T05:37:34.567Z,97574.81
2023-08-08T05:40:00.888Z,97581.84
2023-08-08T05:42:27.485Z,97579.09
2023-08-08T05:44:53.805Z,97578.66
2023-08-08T05:47:20.117Z,97578.31
2023-08-08T05:49:46.619Z,97589.47
2023-08-08T05:52:12.977Z,97591.56
2023-08-08T05:54:39.266Z,97590.19
2023-08-08T05:57:05.666Z,97590.03
2023-08-08T05:59:31.982Z,97596.00
2023-08-08T06:01:58.352Z,97594.03
2023-08-08T06:04:24.976Z,97595.47
2023-08-08T06:06:51.297Z,97594.66
2023-08-08T06:09:17.650Z,97591.78
2023-08-08T06:11:44.023Z,97596.63
2023-08-08T06:14:10.291Z,97602.44
2023-08-08T06:16:36.657Z,97603.31
2023-08-08T06:19:03.034Z,97606.50
2023-08-08T06:21:29.379Z,97610.69
2023-08-08T06:23:55.667Z,97622.84
2023-08-08T06:26:22.031Z,97621.50
2023-08-08T06:28:48.449Z,97614.75
2023-08-08T06:31:15.103Z,97615.81
2023-08-08T06:33:41.563Z,97630.03
2023-08-08T06:36:07.952Z,97614.13
2023-08-08T06:38:34.259Z,97613.25
2023-08-08T06:41:00.729Z,97623.13
2023-08-08T06:43:27.021Z,97609.59
2023-08-08T06:45:53.366Z,97615.47
2023-08-08T06:48:19.898Z,97618.00
2023-08-08T06:50:46.182Z,97613.28
2023-08-08T06:53:12.521Z,97608.78
2023-08-08T06:55:38.897Z,97613.41
2023-08-08T06:58:05.201Z,97610.06
2023-08-08T07:00:31.494Z,97613.19
2023-08-08T07:02:59.749Z,97607.03
2023-08-08T07:05:26.802Z,97607.69
2023-08-08T07:07:53.149Z,97607.84
2023-08-08T07:10:19.489Z,97601.94
2023-08-08T07:12:45.756Z,97602.56
2023-08-08T07:15:12.208Z,97602.00
2023-08-08T07:17:38.656Z,97602.72
2023-08-08T07:20:04.985Z,97595.50
2023-08-08T07:22:31.287Z,97599.28
2023-08-08T07:24:57.641Z,97607.34
2023-08-08T07:27:24.005Z,97609.41
2023-08-08T07:29:50.314Z,97604.69
2023-08-08T07:32:16.645Z,97605.88
2023-08-08T07:34:42.954Z,97603.63
2023-08-08T07:37:09.268Z,97594.00
2023-08-08T07:39:35.717Z,97603.56
2023-08-08T07:42:02.316Z,97603.94
2023-08-08T07:44:28.825Z,97600.91
2023-08-08T07:46:55.254Z,97592.28
2023-08-08T07:49:21.599Z,97596.19
2023-08-08T07:51:47.897Z,97594.25
2023-08-08T07:54:14.393Z,97598.94
2023-08-08T07:56:40.736Z,97594.94
2023-08-08T07:59:07.013Z,97598.50
2023-08-08T08:01:33.407Z,97599.75
2023-08-08T08:03:59.777Z,97592.00
2023-08-08T08:06:26.090Z,97580.69
2023-08-08T08:08:52.455Z,97586.91
2023-08-08T08:11:18.816Z,97586.78
2023-08-08T08:13:45.112Z,97580.13
2023-08-08T08:16:11.590Z,97575.66
2023-08-08T08:18:37.896Z,97582.00
2023-08-08T08:21:04.220Z,97575.00
2023-08-08T08:23:30.624Z,97570.44
2023-08-08T08:25:56.976Z,97571.31
2023-08-08T08:28:23.271Z,97582.09
2023-08-08T08:30:49.665Z,97583.78
2023-08-08T08:33:16.001Z,97586.66
2023-08-08T08:35:42.323Z,97590.84
2023-08-08T08:38:08.964Z,97597.59
2023-08-08T08:40:35.239Z,97603.84
2023-08-08T08:43:01.600Z,97612.66
2023-08-08T08:45:30.418Z,97608.53
2023-08-08T08:47:56.799Z,97605.69
2023-08-08T08:50:23.209Z,97604.56
2023-08-08T08:52:49.578Z,97596.75
2023-08-08T08:55:15.902Z,97597.84
2023-08-08T08:57:42.189Z,97588.66
2023-08-08T09:00:08.621Z,97578.72
2023-08-08T09:02:35.031Z,97575.47
2023-08-08T09:05:01.777Z,97576.94
2023-08-08T09:07:28.173Z,97579.00
2023-08-08T09:09:54.467Z,97577.63
2023-08-08T09:12:20.793Z,97577.50
2023-08-08T09:14:47.203Z,97585.84
2023-08-08T09:17:13.534Z,97596.00
2023-08-08T09:19:39.872Z,97597.91
2023-08-08T09:22:06.247Z,97583.91
2023-08-08T09:24:32.535Z,97580.13
2023-08-08T09:26:58.868Z,97582.53
2023-08-08T09:29:25.212Z,97577.28
2023-08-08T09:31:51.515Z,97577.09
2023-08-08T09:34:17.797Z,97571.91
2023-08-08T09:36:44.161Z,97574.19
2023-08-08T09:39:10.483Z,97580.03
2023-08-08T09:41:36.797Z,97577.50
2023-08-08T09:44:03.330Z,97572.66
2023-08-08T09:46:29.767Z,97574.56
2023-08-08T09:48:56.229Z,97577.69
2023-08-08T09:51:22.568Z,97575.81
2023-08-08T09:53:48.909Z,97577.31
2023-08-08T09:56:15.229Z,97570.63
2023-08-08T09:58:41.613Z,97567.03
2023-08-08T10:01:07.962Z,97569.69
2023-08-08T10:03:34.434Z,97565.50
2023-08-08T10:06:00.902Z,97568.47
2023-08-08T10:08:27.215Z,97574.19
2023-08-08T10:10:53.500Z,97576.41
2023-08-08T10:13:19.840Z,97579.34
2023-08-08T10:15:46.137Z,97574.91
2023-08-08T10:18:12.527Z,97572.78
2023-08-08T10:20:38.918Z,97585.31
2023-08-08T10:23:05.286Z,97573.81
2023-08-08T10:25:31.584Z,97577.91
2023-08-08T10:28:06.380Z,97576.06
2023-08-08T10:30:38.618Z,97580.88
2023-08-08T10:33:05.062Z,97571.81
2023-08-08T10:35:31.412Z,97572.47
2023-08-08T10:37:57.698Z,97569.34
2023-08-08T10:40:25.223Z,97572.66
2023-08-08T10:42:51.529Z,97572.75
2023-08-08T10:45:18.026Z,97577.09
2023-08-08T10:47:44.507Z,97574.63
2023-08-08T10:50:10.946Z,97573.59
2023-08-08T10:52:37.260Z,97563.31
2023-08-08T10:55:03.584Z,97563.34
2023-08-08T10:57:29.883Z,97556.31
2023-08-08T10:59:56.207Z,97557.53
2023-08-08T11:02:22.563Z,97560.28
2023-08-08T11:04:48.995Z,97559.22
2023-08-08T11:07:15.351Z,97555.06
2023-08-08T11:09:41.831Z,97558.38
2023-08-08T11:12:08.142Z,97553.00
2023-08-08T11:14:34.460Z,97547.47
2023-08-08T11:17:00.776Z,97551.31
2023-08-08T11:19:27.092Z,97548.25
2023-08-08T11:21:53.428Z,97542.38
2023-08-08T11:24:19.851Z,97546.97
2023-08-08T11:26:46.190Z,97546.63
2023-08-08T11:29:12.508Z,97551.44
2023-08-08T11:31:38.936Z,97545.91
2023-08-08T11:34:05.303Z,97545.03
2023-08-08T11:36:31.643Z,97539.88
2023-08-08T11:38:58.006Z,97539.59
2023-08-08T11:41:24.340Z,97533.25
2023-08-08T11:43:50.629Z,97535.81
2023-08-08T11:46:16.988Z,97537.72
2023-08-08T11:48:43.297Z,97532.38
2023-08-08T11:51:09.688Z,97533.78
2023-08-08T11:53:36.265Z,97538.50
2023-08-08T11:56:02.568Z,97527.88
2023-08-08T11:58:28.862Z,97519.75
2023-08-08T12:00:55.263Z,97514.66
2023-08-08T12:03:21.813Z,97518.78
2023-08-08T12:05:48.183Z,97521.88
2023-08-08T12:08:14.578Z,97532.16
2023-08-08T12:10:40.862Z,97534.41
2023-08-08T12:13:07.155Z,97537.00
2023-08-08T12:15:37.126Z,97526.84
2023-08-08T12:18:03.459Z,97529.50
2023-08-08T12:20:29.777Z,97517.16
2023-08-08T12:22:56.127Z,97524.50
2023-08-08T12:25:22.501Z,97521.72
2023-08-08T12:27:49.824Z,97517.13
2023-08-08T12:30:18.300Z,97517.94
2023-08-08T12:32:44.699Z,97526.63
2023-08-08T12:35:11.033Z,97525.22
2023-08-08T12:37:37.367Z,97524.41
2023-08-08T12:40:04.947Z,97521.97
2023-08-08T12:42:31.746Z,97511.44
2023-08-08T12:44:58.110Z,97516.72
2023-08-08T12:47:24.619Z,97525.16
2023-08-08T12:49:50.938Z,97526.84
2023-08-08T12:52:17.259Z,97524.16
2023-08-08T12:54:43.541Z,97523.91
2023-08-08T12:57:09.926Z,97510.00
2023-08-08T12:59:36.406Z,97511.22
2023-08-08T13:02:02.919Z,97509.06
2023-08-08T13:04:29.455Z,97509.72
2023-08-08T13:06:55.823Z,97500.41
2023-08-08T13:09:22.113Z,97501.91
2023-08-08T13:11:48.428Z,97495.34
2023-08-08T13:14:14.840Z,97497.06
2023-08-08T13:16:41.262Z,97486.97
2023-08-08T13:19:07.661Z,97490.66
2023-08-08T13:21:34.210Z,97490.00
2023-08-08T13:24:00.509Z,97486.53
2023-08-08T13:26:26.794Z,97483.56
2023-08-08T13:28:53.221Z,97475.53
2023-08-08T13:31:19.558Z,97478.06
2023-08-08T13:33:45.935Z,97474.22
2023-08-08T13:36:12.461Z,97465.50
2023-08-08T13:38:38.790Z,97467.41
2023-08-08T13:41:05.093Z,97460.34
2023-08-08T13:43:31.559Z,97463.19
2023-08-08T13:45:58.022Z,97453.34
2023-08-08T13:48:24.404Z,97454.22
2023-08-08T13:50:50.745Z,97449.75
2023-08-08T13:53:17.194Z,97451.88
2023-08-08T13:55:43.469Z,97452.22
2023-08-08T13:58:09.792Z,97451.00
2023-08-08T14:00:36.171Z,97449.28
2023-08-08T14:03:02.576Z,97453.66
2023-08-08T14:05:29.417Z,97448.50
2023-08-08T14:07:55.685Z,97449.53
2023-08-08T14:10:21.988Z,97449.28
2023-08-08T14:12:48.374Z,97448.06
2023-08-08T14:15:14.719Z,97451.63
2023-08-08T14:17:41.066Z,97448.16
2023-08-08T14:20:08.656Z,97451.56
2023-08-08T14:22:34.984Z,97443.53
2023-08-08T14:25:01.291Z,97444.22
2023-08-08T14:27:27.690Z,97447.09
2023-08-08T14:29:54.018Z,97439.31
2023-08-08T14:32:20.418Z,97452.47
2023-08-08T14:34:46.782Z,97443.88
2023-08-08T14:37:13.039Z,97448.03
2023-08-08T14:39:39.330Z,97442.91
2023-08-08T14:42:05.850Z,97447.63
2023-08-08T14:44:32.176Z,97440.44
2023-08-08T14:46:58.503Z,97444.53
2023-08-08T14:49:25.005Z,97444.22
2023-08-08T14:51:51.319Z,97451.56
2023-08-08T14:54:17.613Z,97449.16
2023-08-08T14:56:44.407Z,97445.09
2023-08-08T14:59:10.683Z,97443.03
2023-08-08T15:01:37.043Z,97439.75
2023-08-08T15:04:04.026Z,97441.81
2023-08-08T15:06:30.330Z,97442.66
2023-08-08T15:08:56.637Z,97442.59
2023-08-08T15:11:22.951Z,97435.59
2023-08-08T15:13:49.249Z,97434.41
2023-08-08T15:16:15.717Z,97428.19
2023-08-08T15:18:42.157Z,97422.97
2023-08-08T15:21:08.480Z,97419.94
2023-08-08T15:23:34.929Z,97419.28
2023-08-08T15:26:01.543Z,97422.25
2023-08-08T15:28:27.825Z,97420.78
2023-08-08T15:30:54.128Z,97413.94
2023-08-08T15:33:20.472Z,97411.19
2023-08-08T15:35:46.863Z,97408.50
2023-08-08T15:38:13.125Z,97403.88
2023-08-08T15:40:41.476Z,97395.41
2023-08-08T15:43:07.971Z,97392.16
2023-08-08T15:45:34.285Z,97392.72
2023-08-08T15:48:00.678Z,97389.84
2023-08-08T15:50:26.974Z,97387.00
2023-08-08T15:52:53.305Z,97390.78
2023-08-08T15:55:19.827Z,97387.88
2023-08-08T15:57:46.139Z,97390.34
2023-08-08T16:00:12.525Z,97380.97
2023-08-08T16:02:38.911Z,97376.56
2023-08-08T16:05:05.263Z,97375.19
2023-08-08T16:07:31.638Z,97368.97
2023-08-08T16:09:58.012Z,97368.09
2023-08-08T16:12:24.318Z,97378.06
2023-08-08T16:14:50.596Z,97375.25
2023-08-08T16:17:17.100Z,97379.31
2023-08-08T16:19:43.371Z,97375.75
2023-08-08T16:22:09.659Z,97369.78
2023-08-08T16:24:36.073Z,97370.00
2023-08-08T16:27:02.668Z,97369.09
2023-08-08T16:29:29.254Z,97377.50
2023-08-08T16:31:55.607Z,97378.78
2023-08-08T16:34:21.951Z,97375.09
2023-08-08T16:36:48.280Z,97375.53
2023-08-08T16:39:18.686Z,97385.56
2023-08-08T16:41:45.621Z,97377.00
2023-08-08T16:44:11.897Z,97382.59
2023-08-08T16:46:38.290Z,97386.56
2023-08-08T16:49:04.647Z,97376.72
2023-08-08T16:51:30.976Z,97378.66
2023-08-08T16:53:57.394Z,97381.75
2023-08-08T16:56:23.744Z,97383.59
2023-08-08T16:58:50.003Z,97385.97
2023-08-08T17:01:16.395Z,97377.13
2023-08-08T17:03:42.689Z,97382.28
2023-08-08T17:06:10.844Z,97388.47
2023-08-08T17:08:38.430Z,97384.31
2023-08-08T17:11:05.024Z,97380.75
2023-08-08T17:13:31.314Z,97386.09
2023-08-08T17:15:59.128Z,97382.91
2023-08-08T17:18:25.439Z,97387.03
2023-08-08T17:20:51.745Z,97383.91
2023-08-08T17:23:18.116Z,97385.16
2023-08-08T17:25:44.431Z,97383.25
2023-08-08T17:28:10.718Z,97385.56
2023-08-08T17:30:37.101Z,97387.25
2023-08-08T17:33:03.424Z,97386.50
2023-08-08T17:35:29.690Z,97379.78
2023-08-08T17:37:55.992Z,97381.53
2023-08-08T17:40:22.278Z,97384.53
2023-08-08T17:42:48.659Z,97380.94
2023-08-08T17:45:14.970Z,97385.09
2023-08-08T17:47:41.349Z,97379.66
2023-08-08T17:50:07.737Z,97384.25
2023-08-08T17:52:34.087Z,97388.34
2023-08-08T17:55:00.356Z,97377.56
2023-08-08T17:57:26.664Z,97384.31
2023-08-08T17:59:53.072Z,97389.97
2023-08-08T18:02:19.378Z,97386.78
2023-08-08T18:04:45.687Z,97381.81
2023-08-08T18:07:12.019Z,97378.66
2023-08-08T18:09:38.331Z,97381.38
2023-08-08T18:12:04.786Z,97387.91
2023-08-08T18:14:31.320Z,97390.97
2023-08-08T18:16:57.669Z,97386.09
2023-08-08T18:19:23.924Z,97382.94
2023-08-08T18:21:50.259Z,97385.41
2023-08-08T18:24:16.634Z,97383.91
2023-08-08T18:26:42.933Z,97392.16
2023-08-08T18:29:09.457Z,97390.84
2023-08-08T18:31:35.868Z,97388.53
2023-08-08T18:34:02.272Z,97390.44
2023-08-08T18:36:28.625Z,97397.03
2023-08-08T18:38:54.954Z,97392.19
2023-08-08T18:41:21.227Z,97394.63
2023-08-08T18:43:47.599Z,97397.53
2023-08-08T18:46:14.039Z,97392.38
2023-08-08T18:48:40.368Z,97395.28
2023-08-08T18:51:06.888Z,97392.50
2023-08-08T18:53:33.239Z,97386.16
2023-08-08T18:55:59.543Z,97394.94
2023-08-08T18:58:26.355Z,97398.88
2023-08-08T19:00:52.960Z,97397.88
2023-08-08T19:03:19.443Z,97404.34
2023-08-08T19:05:45.900Z,97404.78
2023-08-08T19:08:12.215Z,97401.97
2023-08-08T19:10:38.560Z,97404.31
2023-08-08T19:13:04.921Z,97408.19
2023-08-08T19:15:31.212Z,97408.63
2023-08-08T19:17:57.614Z,97416.81
2023-08-08T19:20:23.966Z,97410.44
2023-08-08T19:22:50.280Z,97408.63
2023-08-08T19:25:16.588Z,97408.78
2023-08-08T19:27:42.926Z,97413.44
2023-08-08T19:30:10.284Z,97425.47
2023-08-08T19:32:36.901Z,97417.63
2023-08-08T19:35:03.418Z,97413.38
2023-08-08T19:37:29.703Z,97420.81
2023-08-08T19:39:55.993Z,97422.75
2023-08-08T19:42:22.398Z,97417.31
2023-08-08T19:44:48.732Z,97420.63
2023-08-08T19:47:15.025Z,97422.13
2023-08-08T19:49:41.549Z,97423.94
2023-08-08T19:52:07.813Z,97420.72
2023-08-08T19:54:34.136Z,97426.84
2023-08-08T19:57:00.614Z,97424.25
2023-08-08T19:59:27.045Z,97433.75
2023-08-08T20:01:53.323Z,97434.09
2023-08-08T20:04:19.686Z,97434.91
2023-08-08T20:06:45.956Z,97435.50
2023-08-08T20:09:12.251Z,97438.25
2023-08-08T20:11:39.891Z,97436.09
2023-08-08T20:14:06.181Z,97433.75
2023-08-08T20:16:32.465Z,97432.69
2023-08-08T20:18:58.826Z,97427.78
2023-08-08T20:21:25.200Z,97429.88
2023-08-08T20:23:51.566Z,97428.00
2023-08-08T20:26:17.942Z,97424.94
2023-08-08T20:28:44.223Z,97432.09
2023-08-08T20:31:10.569Z,97427.53
2023-08-08T20:33:36.984Z,97428.88
2023-08-08T20:36:03.280Z,97427.69
2023-08-08T20:38:29.621Z,97425.66
2023-08-08T20:40:55.953Z,97427.84
2023-08-08T20:43:22.238Z,97431.59
2023-08-08T20:45:48.571Z,97431.75
2023-08-08T20:48:15.026Z,97425.94
2023-08-08T20:50:41.328Z,97430.44
2023-08-08T20:53:07.726Z,97432.81
2023-08-08T20:55:34.122Z,97433.38
2023-08-08T20:58:00.411Z,97427.38
2023-08-08T21:00:26.714Z,97427.03
2023-08-08T21:02:53.158Z,97423.97
2023-08-08T21:05:19.522Z,97438.56
2023-08-08T21:07:45.817Z,97441.66
2023-08-08T21:10:12.131Z,97451.19
2023-08-08T21:12:38.389Z,97458.88
2023-08-08T21:15:04.687Z,97462.16
2023-08-08T21:17:31.100Z,97462.16
2023-08-08T21:19:57.414Z,97467.09
2023-08-08T21:22:23.689Z,97465.59
2023-08-08T21:24:50.142Z,97468.31
2023-08-08T21:27:16.450Z,97475.44
2023-08-08T21:29:43.811Z,97473.41
2023-08-08T21:32:10.178Z,97467.50
2023-08-08T21:34:36.481Z,97457.56
2023-08-08T21:37:03.070Z,97457.06
2023-08-08T21:39:29.605Z,97457.47
2023-08-08T21:41:55.891Z,97458.41
2023-08-08T21:44:22.200Z,97458.72
2023-08-08T21:46:48.671Z,97458.28
2023-08-08T21:49:14.978Z,97457.41
2023-08-08T21:51:41.258Z,97457.59
2023-08-08T21:54:07.560Z,97459.00
2023-08-08T21:56:34.234Z,97455.13
2023-08-08T21:59:00.696Z,97458.41
2023-08-08T22:01:27.310Z,97456.19
2023-08-08T22:03:53.790Z,97457.56
2023-08-08T22:06:20.173Z,97447.69
2023-08-08T22:08:46.538Z,97447.91
2023-08-08T22:11:12.862Z,97434.91
2023-08-08T22:13:39.154Z,97428.44
2023-08-08T22:16:05.550Z,97420.81
2023-08-08T22:18:31.945Z,97428.72
2023-08-08T22:20:58.240Z,97422.28
2023-08-08T22:23:24.576Z,97432.44
2023-08-08T22:25:50.942Z,97423.09
2023-08-08T22:28:17.342Z,97429.00
2023-08-08T22:30:43.774Z,97439.88
2023-08-08T22:33:10.073Z,97447.91
2023-08-08T22:35:36.356Z,97449.03
2023-08-08T22:38:02.703Z,97447.41
2023-08-08T22:40:28.996Z,97454.47
2023-08-08T22:42:55.318Z,97465.81
2023-08-08T22:45:21.689Z,97462.69
2023-08-08T22:47:48.007Z,97445.00
2023-08-08T22:50:14.363Z,97433.88
2023-08-08T22:52:40.695Z,97447.38
2023-08-08T22:55:06.980Z,97455.63
2023-08-08T22:57:33.309Z,97441.78
2023-08-08T22:59:59.742Z,97449.44
2023-08-08T23:02:26.087Z,97440.09
2023-08-08T23:04:52.389Z,97433.09
2023-08-08T23:07:18.729Z,97430.16
2023-08-08T23:09:45.019Z,97426.09
2023-08-08T23:12:11.316Z,97415.03
2023-08-08T23:14:37.675Z,97401.34
2023-08-08T23:17:04.173Z,97384.34
2023-08-08T23:19:30.599Z,97386.47
2023-08-08T23:21:57.161Z,97386.16
2023-08-08T23:24:23.531Z,97376.72
2023-08-08T23:26:49.841Z,97376.19
2023-08-08T23:29:16.195Z,97353.59
2023-08-08T23:31:42.591Z,97357.91
2023-08-08T23:34:08.965Z,97365.50
2023-08-08T23:36:35.352Z,97374.28
2023-08-08T23:39:01.690Z,97376.00
2023-08-08T23:41:27.979Z,97371.41
2023-08-08T23:43:54.320Z,97363.94
2023-08-08T23:46:20.700Z,97357.59
2023-08-08T23:48:47.018Z,97343.25
2023-08-08T23:51:13.377Z,97345.25
2023-08-08T23:53:39.676Z,97352.81
2023-08-08T23:56:06.002Z,97359.75
2023-08-08T23:58:32.412Z,97366.25
